createdAt,value
2023-04-03T00:01:10.974Z,34.60
2023-04-03T00:03:37.973Z,34.60
2023-04-03T00:06:07.879Z,34.60
2023-04-03T00:08:34.962Z,34.50
2023-04-03T00:11:02.950Z,34.50
2023-04-03T00:13:30.633Z,34.50
2023-04-03T00:15:58.210Z,34.50
2023-04-03T00:18:25.691Z,34.60
2023-04-03T00:20:52.714Z,34.60
2023-04-03T00:23:19.652Z,34.60
2023-04-03T00:25:46.861Z,34.50
2023-04-03T00:28:14.012Z,34.50
2023-04-03T00:30:41.240Z,34.50
2023-04-03T00:33:08.429Z,34.50
2023-04-03T00:35:36.317Z,34.60
2023-04-03T00:38:03.378Z,34.60
2023-04-03T00:40:41.045Z,34.60
2023-04-03T00:43:24.564Z,34.70
2023-04-03T00:45:54.822Z,34.70
2023-04-03T00:48:49.060Z,34.80
2023-04-03T00:51:22.628Z,34.60
2023-04-03T00:53:57.706Z,34.70
2023-04-03T00:56:29.363Z,34.80
2023-04-03T00:59:06.573Z,34.70
2023-04-03T01:01:33.732Z,34.80
2023-04-03T01:04:04.036Z,34.70
2023-04-03T01:06:37.503Z,34.70
2023-04-03T01:09:06.230Z,34.80
2023-04-03T01:11:34.084Z,34.60
2023-04-03T01:14:02.875Z,34.70
2023-04-03T01:16:33.104Z,34.70
2023-04-03T01:19:02.310Z,34.70
2023-04-03T01:21:51.790Z,34.70
2023-04-03T01:24:40.229Z,34.70
2023-04-03T01:27:11.443Z,34.70
2023-04-03T01:29:39.223Z,34.70
2023-04-03T01:32:06.559Z,34.60
2023-04-03T01:34:33.954Z,34.60
2023-04-03T01:37:00.978Z,34.60
2023-04-03T01:39:28.279Z,34.60
2023-04-03T01:41:55.633Z,34.60
2023-04-03T01:44:22.676Z,34.50
2023-04-03T01:46:49.895Z,34.50
2023-04-03T01:49:17.010Z,34.50
2023-04-03T01:51:44.006Z,34.50
2023-04-03T01:54:11.371Z,34.50
2023-04-03T01:56:40.149Z,34.50
2023-04-03T01:59:07.434Z,34.50
2023-04-03T02:01:34.586Z,34.50
2023-04-03T02:04:01.889Z,34.50
2023-04-03T02:06:29.128Z,34.50
2023-04-03T02:08:58.630Z,34.50
2023-04-03T02:11:26.024Z,34.50
2023-04-03T02:13:53.033Z,35.10
2023-04-03T02:16:20.105Z,34.40
2023-04-03T02:18:47.318Z,34.50
2023-04-03T02:21:14.511Z,34.60
2023-04-03T02:23:41.533Z,34.50
2023-04-03T02:26:12.636Z,34.50
2023-04-03T02:28:40.782Z,34.60
2023-04-03T02:31:09.051Z,34.60
2023-04-03T02:33:37.851Z,34.70
2023-04-03T02:36:09.245Z,34.70
2023-04-03T02:38:37.124Z,34.70
2023-04-03T02:41:08.339Z,34.60
2023-04-03T02:43:35.935Z,34.70
2023-04-03T02:46:03.056Z,34.70
2023-04-03T02:48:30.083Z,34.80
2023-04-03T02:50:57.125Z,34.80
2023-04-03T02:53:24.611Z,34.80
2023-04-03T02:55:51.688Z,34.80
2023-04-03T02:58:18.697Z,34.70
2023-04-03T03:00:45.911Z,34.80
2023-04-03T03:03:14.701Z,34.70
2023-04-03T03:05:41.878Z,34.70
2023-04-03T03:08:08.885Z,34.80
2023-04-03T03:10:36.162Z,34.60
2023-04-03T03:13:04.697Z,34.60
2023-04-03T03:15:31.687Z,34.70
2023-04-03T03:17:58.941Z,34.60
2023-04-03T03:20:28.650Z,34.60
2023-04-03T03:22:55.769Z,34.70
2023-04-03T03:25:23.462Z,34.60
2023-04-03T03:27:50.531Z,34.60
2023-04-03T03:30:19.966Z,34.50
2023-04-03T03:32:47.149Z,34.60
2023-04-03T03:35:14.627Z,34.70
2023-04-03T03:37:41.700Z,34.70
2023-04-03T03:40:10.060Z,34.70
2023-04-03T03:42:37.107Z,34.60
2023-04-03T03:45:04.879Z,34.60
2023-04-03T03:47:31.991Z,34.60
2023-04-03T03:49:59.122Z,34.60
2023-04-03T03:52:27.272Z,34.60
2023-04-03T03:54:54.307Z,35.30
2023-04-03T03:57:21.689Z,34.60
2023-04-03T03:59:49.742Z,34.50
2023-04-03T04:02:17.449Z,34.60
2023-04-03T04:04:44.642Z,34.60
2023-04-03T04:07:11.875Z,34.60
2023-04-03T04:09:39.030Z,34.50
2023-04-03T04:12:06.111Z,34.50
2023-04-03T04:14:33.355Z,34.50
2023-04-03T04:17:00.431Z,34.60
2023-04-03T04:19:28.726Z,34.60
2023-04-03T04:21:55.673Z,34.50
2023-04-03T04:24:23.975Z,34.60
2023-04-03T04:26:50.970Z,34.60
2023-04-03T04:29:19.402Z,34.60
2023-04-03T04:31:46.578Z,34.70
2023-04-03T04:34:14.159Z,34.60
2023-04-03T04:36:41.705Z,34.60
2023-04-03T04:39:08.994Z,34.70
2023-04-03T04:41:36.523Z,34.70
2023-04-03T04:44:03.808Z,34.70
2023-04-03T04:46:31.045Z,34.80
2023-04-03T04:48:58.175Z,34.80
2023-04-03T04:51:27.487Z,34.80
2023-04-03T04:53:56.143Z,34.90
2023-04-03T04:56:23.391Z,34.70
2023-04-03T04:58:50.726Z,34.70
2023-04-03T05:01:18.100Z,34.70
2023-04-03T05:03:45.625Z,34.70
2023-04-03T05:06:12.740Z,34.70
2023-04-03T05:08:39.701Z,34.70
2023-04-03T05:11:06.961Z,34.60
2023-04-03T05:13:33.892Z,34.50
2023-04-03T05:16:00.877Z,34.50
2023-04-03T05:18:27.925Z,34.60
2023-04-03T05:20:54.966Z,34.60
2023-04-03T05:23:21.985Z,34.50
2023-04-03T05:25:49.871Z,34.50
2023-04-03T05:28:17.006Z,34.50
2023-04-03T05:30:44.034Z,34.60
2023-04-03T05:33:11.317Z,34.50
2023-04-03T05:35:42.564Z,34.60
2023-04-03T05:38:09.894Z,34.50
2023-04-03T05:40:37.067Z,34.60
2023-04-03T05:43:04.431Z,34.70
2023-04-03T05:45:31.661Z,34.80
2023-04-03T05:47:58.719Z,34.90
2023-04-03T05:50:26.030Z,35.00
2023-04-03T05:52:57.634Z,35.10
2023-04-03T05:55:24.702Z,35.20
2023-04-03T05:57:51.886Z,35.00
2023-04-03T06:00:19.827Z,35.10
2023-04-03T06:02:47.152Z,35.20
2023-04-03T06:05:14.364Z,35.20
2023-04-03T06:07:42.167Z,35.10
2023-04-03T06:10:10.155Z,35.20
2023-04-03T06:12:37.278Z,35.20
2023-04-03T06:15:04.953Z,35.10
2023-04-03T06:17:32.258Z,35.20
2023-04-03T06:19:59.461Z,35.10
2023-04-03T06:22:26.862Z,35.00
2023-04-03T06:24:54.264Z,35.20
2023-04-03T06:27:21.598Z,34.80
2023-04-03T06:29:49.970Z,33.00
2023-04-03T06:32:18.090Z,32.30
2023-04-03T06:34:45.881Z,32.20
2023-04-03T06:37:27.223Z,32.50
2023-04-03T06:39:54.255Z,32.60
2023-04-03T06:42:22.300Z,33.00
2023-04-03T06:44:49.490Z,33.10
2023-04-03T06:47:22.817Z,33.10
2023-04-03T06:49:49.819Z,33.20
2023-04-03T06:52:16.807Z,33.30
2023-04-03T06:54:43.848Z,33.40
2023-04-03T06:57:11.010Z,33.50
2023-04-03T06:59:38.383Z,33.50
2023-04-03T07:02:07.347Z,33.60
2023-04-03T07:04:34.558Z,33.90
2023-04-03T07:07:02.329Z,33.90
2023-04-03T07:09:31.772Z,35.10
2023-04-03T07:11:58.965Z,35.30
2023-04-03T07:14:29.733Z,34.20
2023-04-03T07:16:56.803Z,34.00
2023-04-03T07:19:25.552Z,34.40
2023-04-03T07:21:52.525Z,35.90
2023-04-03T07:24:20.023Z,34.50
2023-04-03T07:27:01.035Z,34.40
2023-04-03T07:29:33.914Z,34.40
2023-04-03T07:32:15.988Z,36.80
2023-04-03T07:35:11.731Z,34.90
2023-04-03T07:37:38.859Z,35.80
2023-04-03T07:40:13.798Z,35.10
2023-04-03T07:42:41.535Z,34.30
2023-04-03T07:45:12.447Z,36.60
2023-04-03T07:47:39.410Z,34.90
2023-04-03T07:50:07.428Z,34.40
2023-04-03T07:52:34.406Z,34.60
2023-04-03T07:55:01.573Z,34.60
2023-04-03T07:57:28.792Z,34.50
2023-04-03T07:59:55.940Z,34.40
2023-04-03T08:02:23.006Z,34.60
2023-04-03T08:04:50.286Z,34.30
2023-04-03T08:07:17.400Z,34.30
2023-04-03T08:09:48.973Z,34.30
2023-04-03T08:12:18.662Z,34.30
2023-04-03T08:14:46.208Z,34.20
2023-04-03T08:17:13.689Z,34.10
2023-04-03T08:19:42.007Z,34.20
2023-04-03T08:22:09.035Z,34.30
2023-04-03T08:24:36.515Z,34.30
2023-04-03T08:27:05.072Z,34.40
2023-04-03T08:29:32.980Z,34.40
2023-04-03T08:32:01.109Z,34.40
2023-04-03T08:34:31.562Z,34.20
2023-04-03T08:36:58.540Z,34.50
2023-04-03T08:39:26.052Z,34.40
2023-04-03T08:41:54.368Z,34.40
2023-04-03T08:44:47.563Z,34.30
2023-04-03T08:47:42.612Z,34.30
2023-04-03T08:50:20.796Z,34.30
2023-04-03T08:52:57.464Z,34.30
2023-04-03T08:55:35.476Z,34.20
2023-04-03T08:58:06.295Z,34.40
2023-04-03T09:00:47.455Z,34.40
2023-04-03T09:03:21.912Z,34.70
2023-04-03T09:06:22.101Z,34.70
2023-04-03T09:09:29.288Z,34.50
2023-04-03T09:12:14.852Z,34.50
2023-04-03T09:15:07.508Z,34.40
2023-04-03T09:18:00.643Z,34.40
2023-04-03T09:20:52.804Z,34.40
2023-04-03T09:23:52.738Z,34.20
2023-04-03T09:26:36.502Z,34.40
2023-04-03T09:29:08.669Z,34.50
2023-04-03T09:31:45.068Z,34.40
2023-04-03T09:34:32.548Z,34.20
2023-04-03T09:37:11.645Z,34.20
2023-04-03T09:39:55.408Z,34.20
2023-04-03T09:42:25.932Z,34.20
2023-04-03T09:45:25.772Z,34.20
2023-04-03T09:48:16.114Z,34.20
2023-04-03T09:51:01.837Z,34.20
2023-04-03T09:53:42.035Z,34.20
2023-04-03T09:56:17.842Z,34.20
2023-04-03T09:59:04.793Z,32.70
2023-04-03T10:01:37.019Z,30.00
2023-04-03T10:04:25.518Z,30.40
2023-04-03T10:06:56.106Z,30.10
2023-04-03T10:09:37.061Z,31.10
2023-04-03T10:12:13.269Z,31.20
2023-04-03T10:14:59.849Z,31.60
2023-04-03T10:17:52.605Z,31.90
2023-04-03T10:20:55.213Z,32.00
2023-04-03T10:23:43.210Z,32.20
2023-04-03T10:26:24.649Z,32.30
2023-04-03T10:29:26.537Z,32.60
2023-04-03T10:32:27.839Z,32.80
2023-04-03T10:35:43.259Z,33.20
2023-04-03T10:39:04.387Z,32.80
2023-04-03T10:42:25.440Z,33.10
2023-04-03T10:45:25.413Z,32.90
2023-04-03T10:48:12.392Z,32.90
2023-04-03T10:51:09.328Z,32.70
2023-04-03T10:53:54.003Z,32.40
2023-04-03T10:56:45.695Z,32.30
2023-04-03T10:59:37.852Z,32.30
2023-04-03T11:02:31.081Z,32.20
2023-04-03T11:05:10.420Z,32.30
2023-04-03T11:07:47.463Z,32.30
2023-04-03T11:10:43.808Z,32.20
2023-04-03T11:13:41.784Z,32.10
2023-04-03T11:16:10.654Z,32.00
2023-04-03T11:18:57.738Z,32.40
2023-04-03T11:21:44.368Z,32.00
2023-04-03T11:24:46.860Z,32.10
2023-04-03T11:27:25.342Z,31.90
2023-04-03T11:29:56.628Z,31.80
2023-04-03T11:32:36.643Z,31.90
2023-04-03T11:35:08.404Z,32.10
2023-04-03T11:37:48.707Z,31.90
2023-04-03T11:40:31.121Z,31.70
2023-04-03T11:43:08.788Z,31.80
2023-04-03T11:46:04.778Z,31.50
2023-04-03T11:48:40.938Z,31.30
2023-04-03T11:51:14.041Z,32.10
2023-04-03T11:53:44.077Z,31.10
2023-04-03T11:56:28.983Z,31.30
2023-04-03T11:59:19.310Z,30.60
2023-04-03T12:01:59.518Z,31.20
2023-04-03T12:04:28.975Z,31.00
2023-04-03T12:07:20.046Z,31.00
2023-04-03T12:09:47.013Z,30.60
2023-04-03T12:12:38.447Z,30.90
2023-04-03T12:15:51.590Z,30.40
2023-04-03T12:18:44.213Z,30.50
2023-04-03T12:21:14.975Z,30.40
2023-04-03T12:24:27.744Z,30.70
2023-04-03T12:27:27.958Z,30.50
2023-04-03T12:30:28.973Z,30.20
2023-04-03T12:34:01.941Z,30.00
2023-04-03T12:36:54.559Z,30.00
2023-04-03T12:39:53.338Z,30.00
2023-04-03T12:42:54.351Z,30.00
2023-04-03T12:45:25.519Z,30.10
2023-04-03T12:47:56.453Z,30.20
2023-04-03T12:50:37.097Z,30.10
2023-04-03T12:53:19.522Z,29.80
2023-04-03T12:55:47.083Z,29.70
2023-04-03T12:58:29.759Z,29.30
2023-04-03T13:01:25.701Z,29.30
2023-04-03T13:04:00.180Z,29.60
2023-04-03T13:06:43.554Z,29.40
2023-04-03T13:09:30.414Z,29.30
2023-04-03T13:12:13.695Z,29.30
2023-04-03T13:14:42.272Z,29.70
2023-04-03T13:17:17.112Z,29.60
2023-04-03T13:19:49.028Z,29.30
2023-04-03T13:22:34.377Z,29.50
2023-04-03T13:25:08.719Z,29.50
2023-04-03T13:27:39.271Z,29.30
2023-04-03T13:30:08.217Z,28.60
2023-04-03T13:32:35.982Z,29.10
2023-04-03T13:35:15.625Z,29.00
2023-04-03T13:37:58.217Z,29.00
2023-04-03T13:40:30.199Z,28.90
2023-04-03T13:43:22.350Z,29.00
2023-04-03T13:46:21.942Z,28.90
2023-04-03T13:48:54.203Z,28.90
2023-04-03T13:51:30.787Z,28.90
2023-04-03T13:54:19.712Z,28.80
2023-04-03T13:56:47.442Z,28.90
2023-04-03T13:59:14.652Z,28.90
2023-04-03T14:01:49.652Z,27.50
2023-04-03T14:04:24.833Z,27.20
2023-04-03T14:06:52.611Z,27.40
2023-04-03T14:09:23.110Z,27.60
2023-04-03T14:11:55.185Z,27.60
2023-04-03T14:14:43.359Z,27.90
2023-04-03T14:17:24.741Z,27.90
2023-04-03T14:19:58.156Z,28.40
2023-04-03T14:22:35.910Z,28.30
2023-04-03T14:25:05.933Z,27.00
2023-04-03T14:27:58.052Z,26.00
2023-04-03T14:30:32.169Z,24.90
2023-04-03T14:33:01.888Z,25.50
2023-04-03T14:35:29.603Z,25.20
2023-04-03T14:37:57.168Z,25.10
2023-04-03T14:40:28.353Z,24.80
2023-04-03T14:42:56.474Z,24.40
2023-04-03T14:45:24.890Z,24.40
2023-04-03T14:47:55.997Z,24.40
2023-04-03T14:50:28.121Z,24.30
2023-04-03T14:53:01.953Z,24.20
2023-04-03T14:55:29.337Z,23.90
2023-04-03T14:57:56.575Z,23.90
2023-04-03T15:00:24.522Z,24.30
2023-04-03T15:02:54.394Z,24.60
2023-04-03T15:05:21.771Z,24.90
2023-04-03T15:07:55.637Z,25.20
2023-04-03T15:10:28.355Z,25.50
2023-04-03T15:12:57.376Z,25.80
2023-04-03T15:15:29.499Z,26.20
2023-04-03T15:18:00.462Z,26.30
2023-04-03T15:20:31.670Z,26.40
2023-04-03T15:23:01.742Z,26.50
2023-04-03T15:25:29.832Z,26.60
2023-04-03T15:27:58.532Z,26.70
2023-04-03T15:30:26.063Z,26.70
2023-04-03T15:32:54.222Z,26.70
2023-04-03T15:35:21.605Z,26.70
2023-04-03T15:37:49.315Z,26.70
2023-04-03T15:40:16.838Z,26.80
2023-04-03T15:42:44.013Z,26.40
2023-04-03T15:45:11.570Z,25.40
2023-04-03T15:47:39.090Z,25.40
2023-04-03T15:50:09.047Z,25.60
2023-04-03T15:52:36.831Z,25.70
2023-04-03T15:55:06.504Z,25.80
2023-04-03T16:00:00.612Z,26.00
2023-04-03T16:02:28.569Z,26.10
2023-04-03T16:04:56.885Z,26.20
2023-04-03T16:07:23.953Z,26.20
2023-04-03T16:09:54.251Z,26.30
2023-04-03T16:12:21.356Z,26.30
2023-04-03T16:14:48.366Z,26.40
2023-04-03T16:17:15.495Z,26.50
2023-04-03T16:19:42.813Z,26.50
2023-04-03T16:22:09.943Z,26.60
2023-04-03T16:24:37.091Z,26.60
2023-04-03T16:27:04.153Z,26.60
2023-04-03T16:29:31.433Z,26.60
2023-04-03T16:31:59.494Z,26.70
2023-04-03T16:34:27.701Z,26.70
2023-04-03T16:36:54.965Z,26.80
2023-04-03T16:39:22.000Z,26.70
2023-04-03T16:41:48.997Z,26.80
2023-04-03T16:44:16.273Z,26.80
2023-04-03T16:46:43.452Z,26.90
2023-04-03T16:49:11.008Z,26.90
2023-04-03T16:51:38.069Z,27.00
2023-04-03T16:54:05.189Z,27.00
2023-04-03T16:56:33.149Z,26.90
2023-04-03T16:59:00.329Z,27.00
2023-04-03T17:01:27.495Z,27.10
2023-04-03T17:03:54.707Z,27.20
2023-04-03T17:06:24.517Z,27.10
2023-04-03T17:08:53.318Z,27.30
2023-04-03T17:11:21.682Z,27.30
2023-04-03T17:13:48.968Z,27.30
2023-04-03T17:16:17.619Z,27.30
2023-04-03T17:18:46.907Z,27.40
2023-04-03T17:21:15.963Z,27.40
2023-04-03T17:23:48.057Z,27.40
2023-04-03T17:26:15.380Z,27.40
2023-04-03T17:28:44.182Z,27.50
2023-04-03T17:31:12.657Z,27.30
2023-04-03T17:33:39.620Z,27.40
2023-04-03T17:36:10.781Z,27.50
2023-04-03T17:38:38.090Z,27.50
2023-04-03T17:41:08.992Z,27.50
2023-04-03T17:43:36.806Z,27.60
2023-04-03T17:46:09.129Z,27.60
2023-04-03T17:48:41.096Z,27.70
2023-04-03T17:51:12.049Z,27.80
2023-04-03T17:53:40.176Z,27.80
2023-04-03T17:56:10.456Z,27.90
2023-04-03T17:58:37.846Z,27.90
2023-04-03T18:01:24.213Z,27.90
2023-04-03T18:03:55.544Z,28.10
2023-04-03T18:06:29.013Z,28.00
2023-04-03T18:09:09.911Z,28.00
2023-04-03T18:11:37.949Z,28.10
2023-04-03T18:14:07.962Z,28.10
2023-04-03T18:16:35.676Z,28.10
2023-04-03T18:19:21.146Z,28.60
2023-04-03T18:21:50.898Z,28.20
2023-04-03T18:24:21.388Z,28.20
2023-04-03T18:26:55.941Z,28.30
2023-04-03T18:29:24.425Z,28.40
2023-04-03T18:31:55.968Z,28.30
2023-04-03T18:34:23.312Z,28.50
2023-04-03T18:36:50.660Z,28.40
2023-04-03T18:39:17.832Z,28.50
2023-04-03T18:41:46.114Z,28.40
2023-04-03T18:44:19.436Z,28.50
2023-04-03T18:46:46.841Z,28.60
2023-04-03T18:49:15.233Z,28.60
2023-04-03T18:51:42.496Z,28.70
2023-04-03T18:54:10.273Z,28.70
2023-04-03T18:56:38.800Z,28.70
2023-04-03T18:59:05.913Z,28.80
2023-04-03T19:01:35.145Z,28.70
2023-04-03T19:04:02.913Z,28.90
2023-04-03T19:06:30.360Z,28.90
2023-04-03T19:08:57.427Z,28.90
2023-04-03T19:11:24.716Z,28.90
2023-04-03T19:14:10.135Z,28.90
2023-04-03T19:16:39.547Z,29.00
2023-04-03T19:19:06.951Z,29.00
2023-04-03T19:21:35.234Z,29.00
2023-04-03T19:24:02.342Z,29.10
2023-04-03T19:26:31.297Z,29.10
2023-04-03T19:28:58.325Z,29.20
2023-04-03T19:31:25.879Z,29.20
2023-04-03T19:33:53.049Z,29.20
2023-04-03T19:36:20.485Z,29.30
2023-04-03T19:38:47.625Z,29.30
2023-04-03T19:41:27.674Z,29.30
2023-04-03T19:43:56.633Z,29.60
2023-04-03T19:46:26.422Z,29.40
2023-04-03T19:48:54.257Z,29.40
2023-04-03T19:51:21.884Z,29.40
2023-04-03T19:53:49.059Z,29.40
2023-04-03T19:56:18.662Z,29.40
2023-04-03T19:58:45.979Z,29.60
2023-04-03T20:01:13.325Z,29.50
2023-04-03T20:03:41.973Z,29.60
2023-04-03T20:06:09.223Z,29.50
2023-04-03T20:08:37.183Z,29.60
2023-04-03T20:11:04.267Z,29.70
2023-04-03T20:13:31.652Z,29.60
2023-04-03T20:16:06.740Z,29.60
2023-04-03T20:18:34.807Z,29.80
2023-04-03T20:21:07.131Z,29.80
2023-04-03T20:23:37.224Z,29.80
2023-04-03T20:26:14.366Z,29.80
2023-04-03T20:28:43.120Z,29.80
2023-04-03T20:31:12.082Z,29.80
2023-04-03T20:33:39.291Z,29.90
2023-04-03T20:36:06.698Z,29.90
2023-04-03T20:38:33.948Z,29.80
2023-04-03T20:41:01.510Z,29.90
2023-04-03T20:43:28.785Z,30.00
2023-04-03T20:45:56.514Z,30.00
2023-04-03T20:48:23.786Z,30.00
2023-04-03T20:50:51.144Z,30.00
2023-04-03T20:53:19.289Z,30.00
2023-04-03T20:56:01.264Z,30.00
2023-04-03T20:58:33.151Z,30.30
2023-04-03T21:01:00.891Z,30.10
2023-04-03T21:03:32.955Z,30.10
2023-04-03T21:06:00.511Z,30.10
2023-04-03T21:09:24.121Z,30.10
2023-04-03T21:12:47.608Z,30.50
2023-04-03T21:16:00.392Z,30.40
2023-04-03T21:18:59.436Z,30.50
2023-04-03T21:21:26.974Z,30.50
2023-04-03T21:23:55.658Z,30.20
2023-04-03T21:26:26.509Z,30.30
2023-04-03T21:28:54.425Z,30.30
2023-04-03T21:31:22.119Z,30.30
2023-04-03T21:33:50.141Z,30.30
2023-04-03T21:36:17.106Z,30.30
2023-04-03T21:38:48.308Z,30.40
2023-04-03T21:41:15.559Z,30.40
2023-04-03T21:43:45.903Z,30.50
2023-04-03T21:46:13.773Z,30.50
2023-04-03T21:48:40.985Z,30.50
2023-04-03T21:51:08.407Z,31.10
2023-04-03T21:53:35.565Z,30.50
2023-04-03T21:56:02.880Z,30.50
2023-04-03T21:58:32.131Z,30.60
2023-04-03T22:01:12.920Z,30.60
2023-04-03T22:03:41.725Z,30.90
2023-04-03T22:06:16.499Z,30.70
2023-04-03T22:08:44.681Z,30.90
2023-04-03T22:11:16.495Z,30.80
2023-04-03T22:13:44.518Z,30.90
2023-04-03T22:16:12.915Z,30.80
2023-04-03T22:18:40.216Z,30.80
2023-04-03T22:21:10.265Z,30.80
2023-04-03T22:23:37.818Z,30.80
2023-04-03T22:26:10.693Z,30.80
2023-04-03T22:28:43.894Z,30.90
2023-04-03T22:31:11.914Z,30.90
2023-04-03T22:33:39.509Z,30.90
2023-04-03T22:36:09.423Z,30.90
2023-04-03T22:38:37.543Z,30.90
2023-04-03T22:41:07.303Z,31.00
2023-04-03T22:43:36.649Z,31.00
2023-04-03T22:46:07.383Z,31.00
2023-04-03T22:48:35.588Z,31.10
2023-04-03T22:51:08.952Z,31.00
2023-04-03T22:53:36.879Z,31.10
2023-04-03T22:56:11.164Z,31.10
2023-04-03T22:58:39.198Z,31.10
2023-04-03T23:01:10.052Z,31.10
2023-04-03T23:03:39.676Z,31.20
2023-04-03T23:06:08.397Z,31.20
2023-04-03T23:08:40.946Z,31.30
2023-04-03T23:11:11.741Z,31.10
2023-04-03T23:13:38.962Z,31.20
2023-04-03T23:16:07.035Z,31.20
2023-04-03T23:18:34.467Z,31.20
2023-04-03T23:21:04.834Z,31.30
2023-04-03T23:23:32.416Z,31.40
2023-04-03T23:26:03.196Z,31.40
2023-04-03T23:28:30.810Z,31.50
2023-04-03T23:31:03.993Z,31.30
2023-04-03T23:33:32.683Z,31.50
2023-04-03T23:36:06.814Z,32.00
2023-04-03T23:38:34.934Z,31.40
2023-04-03T23:41:02.273Z,31.40
2023-04-03T23:43:29.376Z,31.50
2023-04-03T23:45:56.431Z,31.50
2023-04-03T23:48:23.444Z,31.50
2023-04-03T23:50:50.881Z,31.40
2023-04-03T23:53:18.498Z,31.70
2023-04-03T23:55:45.755Z,31.50
2023-04-03T23:58:12.844Z,31.50
